LFTF weather

Public forecast

Using degrees Celsius for public forecast. Weather courtesy of forecast.io.

Closest aviation weather report (METAR) to Aérodrome de Cuers-Pierrefeu

Closest report is Toulon-Hyères Airport, 9.1 nm (16.8 km) S. Retrieved 2020/08/12 00:30 UTC (21 minutes ago):

LFTH 120030Z AUTO 36003KT CAVOK 21/19 Q1015 NOSIG

Closest aviation forecast (TAF) to Aérodrome de Cuers-Pierrefeu

Closest forecast is Toulon-Hyères Airport, 9.1 nm (16.8 km) S. Retrieved 2020/08/11 21:00 UTC (4 hours ago):

TAF LFTH 112000Z 1121/1221 23010KT CAVOK BECMG 1121/1122 VRB03KT BECMG 1208/1211 14010KT BECMG 1217/1220 VRB03KT